sensor_id;sensor_type;location;lat;lon;timestamp;pressure;altitude;pressure_sealevel;temperature;humidity
19827;BME280;10074;52.018;4.726;2022-11-23T00:00:32;46473.91;;;-144.79;100.00
19827;BME280;10074;52.018;4.726;2022-11-23T00:05:33;46473.91;;;-144.79;100.00
19827;BME280;10074;52.018;4.726;2022-11-23T00:10:33;46471.91;;;-144.79;100.00
19827;BME280;10074;52.018;4.726;2022-11-23T00:15:33;46469.88;;;-144.79;100.00
19827;BME280;10074;52.018;4.726;2022-11-23T00:20:38;46475.91;;;-144.79;100.00
19827;BME280;10074;52.018;4.726;2022-11-23T00:25:38;46467.88;;;-144.79;100.00
19827;BME280;10074;52.018;4.726;2022-11-23T00:30:39;46473.91;;;-144.79;100.00
19827;BME280;10074;52.018;4.726;2022-11-23T00:35:39;46469.88;;;-144.79;100.00
19827;BME280;10074;52.018;4.726;2022-11-23T00:40:39;46475.91;;;-144.79;100.00
19827;BME280;10074;52.018;4.726;2022-11-23T00:45:40;46473.91;;;-144.79;100.00
19827;BME280;10074;52.018;4.726;2022-11-23T00:50:40;46475.91;;;-144.79;100.00
19827;BME280;10074;52.018;4.726;2022-11-23T00:55:40;46471.91;;;-144.79;100.00
19827;BME280;10074;52.018;4.726;2022-11-23T01:00:40;46471.91;;;-144.79;100.00
19827;BME280;10074;52.018;4.726;2022-11-23T01:05:41;46473.91;;;-144.79;100.00
19827;BME280;10074;52.018;4.726;2022-11-23T01:10:42;46475.91;;;-144.79;100.00
19827;BME280;10074;52.018;4.726;2022-11-23T01:15:49;46475.91;;;-144.79;100.00
19827;BME280;10074;52.018;4.726;2022-11-23T01:20:50;46467.88;;;-144.79;100.00
19827;BME280;10074;52.018;4.726;2022-11-23T01:25:50;46475.91;;;-144.79;100.00
19827;BME280;10074;52.018;4.726;2022-11-23T01:30:50;46473.91;;;-144.79;100.00
19827;BME280;10074;52.018;4.726;2022-11-23T01:35:51;46477.91;;;-144.79;100.00
19827;BME280;10074;52.018;4.726;2022-11-23T01:40:51;46473.91;;;-144.79;100.00
19827;BME280;10074;52.018;4.726;2022-11-23T01:50:52;46469.88;;;-144.79;100.00
19827;BME280;10074;52.018;4.726;2022-11-23T01:55:58;46471.91;;;-144.79;100.00
19827;BME280;10074;52.018;4.726;2022-11-23T02:00:59;46473.91;;;-144.79;100.00
19827;BME280;10074;52.018;4.726;2022-11-23T02:06:02;46471.91;;;-144.79;100.00
19827;BME280;10074;52.018;4.726;2022-11-23T02:11:03;46473.91;;;-144.79;100.00
19827;BME280;10074;52.018;4.726;2022-11-23T02:16:04;46477.91;;;-144.79;100.00
19827;BME280;10074;52.018;4.726;2022-11-23T02:21:05;46475.91;;;-144.79;100.00
19827;BME280;10074;52.018;4.726;2022-11-23T02:26:08;46475.91;;;-144.79;100.00
19827;BME280;10074;52.018;4.726;2022-11-23T02:31:10;46473.91;;;-144.79;100.00
19827;BME280;10074;52.018;4.726;2022-11-23T02:36:47;46473.91;;;-144.79;100.00
19827;BME280;10074;52.018;4.726;2022-11-23T02:41:50;46471.91;;;-144.79;100.00
19827;BME280;10074;52.018;4.726;2022-11-23T02:46:52;46475.91;;;-144.79;100.00
19827;BME280;10074;52.018;4.726;2022-11-23T02:51:53;46475.91;;;-144.79;100.00
19827;BME280;10074;52.018;4.726;2022-11-23T02:56:53;46471.91;;;-144.79;100.00
19827;BME280;10074;52.018;4.726;2022-11-23T03:01:53;46475.91;;;-144.79;100.00
19827;BME280;10074;52.018;4.726;2022-11-23T03:06:54;46473.91;;;-144.79;100.00
19827;BME280;10074;52.018;4.726;2022-11-23T03:11:55;46475.91;;;-144.79;100.00
19827;BME280;10074;52.018;4.726;2022-11-23T03:16:55;46469.88;;;-144.79;100.00
19827;BME280;10074;52.018;4.726;2022-11-23T03:21:55;46469.88;;;-144.79;100.00
19827;BME280;10074;52.018;4.726;2022-11-23T03:26:56;46475.91;;;-144.79;100.00
19827;BME280;10074;52.018;4.726;2022-11-23T03:31:56;46475.91;;;-144.79;100.00
19827;BME280;10074;52.018;4.726;2022-11-23T03:36:56;46473.91;;;-144.79;100.00
19827;BME280;10074;52.018;4.726;2022-11-23T03:41:57;46473.91;;;-144.79;100.00
19827;BME280;10074;52.018;4.726;2022-11-23T03:46:57;46473.91;;;-144.79;100.00
19827;BME280;10074;52.018;4.726;2022-11-23T03:51:58;46473.91;;;-144.79;100.00
19827;BME280;10074;52.018;4.726;2022-11-23T03:56:59;46475.91;;;-144.79;100.00
19827;BME280;10074;52.018;4.726;2022-11-23T04:01:59;46475.91;;;-144.79;100.00
19827;BME280;10074;52.018;4.726;2022-11-23T04:06:59;46473.91;;;-144.79;100.00
19827;BME280;10074;52.018;4.726;2022-11-23T04:11:59;46471.91;;;-144.79;100.00
19827;BME280;10074;52.018;4.726;2022-11-23T04:17:00;46477.91;;;-144.79;100.00
19827;BME280;10074;52.018;4.726;2022-11-23T04:22:01;46475.91;;;-144.79;100.00
19827;BME280;10074;52.018;4.726;2022-11-23T04:27:01;46475.91;;;-144.79;100.00
19827;BME280;10074;52.018;4.726;2022-11-23T04:32:02;46471.91;;;-144.79;100.00
19827;BME280;10074;52.018;4.726;2022-11-23T04:37:02;46475.91;;;-144.79;100.00
19827;BME280;10074;52.018;4.726;2022-11-23T04:42:03;46471.91;;;-144.79;100.00
19827;BME280;10074;52.018;4.726;2022-11-23T04:47:03;46471.91;;;-144.79;100.00
19827;BME280;10074;52.018;4.726;2022-11-23T04:52:04;46473.91;;;-144.79;100.00
19827;BME280;10074;52.018;4.726;2022-11-23T04:57:05;46473.91;;;-144.79;100.00
19827;BME280;10074;52.018;4.726;2022-11-23T05:02:05;46471.91;;;-144.79;100.00
19827;BME280;10074;52.018;4.726;2022-11-23T05:07:05;46469.88;;;-144.79;100.00
19827;BME280;10074;52.018;4.726;2022-11-23T05:12:06;46475.91;;;-144.79;100.00
19827;BME280;10074;52.018;4.726;2022-11-23T05:17:06;46475.91;;;-144.79;100.00
19827;BME280;10074;52.018;4.726;2022-11-23T05:22:07;46475.91;;;-144.79;100.00
19827;BME280;10074;52.018;4.726;2022-11-23T05:27:07;46477.91;;;-144.79;100.00
19827;BME280;10074;52.018;4.726;2022-11-23T05:32:07;46475.91;;;-144.79;100.00
19827;BME280;10074;52.018;4.726;2022-11-23T05:37:08;46469.88;;;-144.79;100.00
19827;BME280;10074;52.018;4.726;2022-11-23T05:42:08;46471.91;;;-144.79;100.00
19827;BME280;10074;52.018;4.726;2022-11-23T05:47:08;46471.91;;;-144.79;100.00
19827;BME280;10074;52.018;4.726;2022-11-23T05:52:08;46471.91;;;-144.79;100.00
19827;BME280;10074;52.018;4.726;2022-11-23T05:57:09;46471.91;;;-144.79;100.00
19827;BME280;10074;52.018;4.726;2022-11-23T06:02:10;46471.91;;;-144.79;100.00
19827;BME280;10074;52.018;4.726;2022-11-23T06:07:10;46473.91;;;-144.79;100.00
19827;BME280;10074;52.018;4.726;2022-11-23T06:12:11;46471.91;;;-144.79;100.00
19827;BME280;10074;52.018;4.726;2022-11-23T06:17:11;46473.91;;;-144.79;100.00
19827;BME280;10074;52.018;4.726;2022-11-23T06:22:11;46475.91;;;-144.79;100.00
19827;BME280;10074;52.018;4.726;2022-11-23T06:27:12;46475.91;;;-144.79;100.00
19827;BME280;10074;52.018;4.726;2022-11-23T06:32:16;46475.91;;;-144.79;100.00
19827;BME280;10074;52.018;4.726;2022-11-23T06:37:17;46471.91;;;-144.79;100.00
19827;BME280;10074;52.018;4.726;2022-11-23T06:42:17;46477.91;;;-144.79;100.00
19827;BME280;10074;52.018;4.726;2022-11-23T06:47:17;46467.88;;;-144.79;100.00
19827;BME280;10074;52.018;4.726;2022-11-23T06:52:17;46475.91;;;-144.79;100.00
19827;BME280;10074;52.018;4.726;2022-11-23T06:57:18;46469.88;;;-144.79;100.00
19827;BME280;10074;52.018;4.726;2022-11-23T07:02:18;46475.91;;;-144.79;100.00
19827;BME280;10074;52.018;4.726;2022-11-23T07:07:18;46473.91;;;-144.79;100.00
19827;BME280;10074;52.018;4.726;2022-11-23T07:12:19;46475.91;;;-144.79;100.00
19827;BME280;10074;52.018;4.726;2022-11-23T07:17:19;46469.88;;;-144.79;100.00
19827;BME280;10074;52.018;4.726;2022-11-23T07:22:19;46469.88;;;-144.79;100.00
19827;BME280;10074;52.018;4.726;2022-11-23T07:27:19;46471.91;;;-144.79;100.00
19827;BME280;10074;52.018;4.726;2022-11-23T07:32:20;46471.91;;;-144.79;100.00
19827;BME280;10074;52.018;4.726;2022-11-23T07:37:20;46471.91;;;-144.79;100.00
19827;BME280;10074;52.018;4.726;2022-11-23T07:42:21;46473.91;;;-144.79;100.00
19827;BME280;10074;52.018;4.726;2022-11-23T07:47:21;46473.91;;;-144.79;100.00
19827;BME280;10074;52.018;4.726;2022-11-23T07:52:22;46475.91;;;-144.79;100.00
19827;BME280;10074;52.018;4.726;2022-11-23T07:57:23;46473.91;;;-144.79;100.00
19827;BME280;10074;52.018;4.726;2022-11-23T08:02:23;46473.91;;;-144.79;100.00
19827;BME280;10074;52.018;4.726;2022-11-23T08:07:24;46475.91;;;-144.79;100.00
19827;BME280;10074;52.018;4.726;2022-11-23T08:12:24;46473.91;;;-144.79;100.00
19827;BME280;10074;52.018;4.726;2022-11-23T08:17:24;46469.88;;;-144.79;100.00
19827;BME280;10074;52.018;4.726;2022-11-23T08:22:24;46469.88;;;-144.79;100.00
19827;BME280;10074;52.018;4.726;2022-11-23T08:27:26;46467.88;;;-144.79;100.00
19827;BME280;10074;52.018;4.726;2022-11-23T08:32:26;46471.91;;;-144.79;100.00
19827;BME280;10074;52.018;4.726;2022-11-23T08:37:27;46461.88;;;-144.79;100.00
19827;BME280;10074;52.018;4.726;2022-11-23T08:42:27;46463.88;;;-144.79;100.00
19827;BME280;10074;52.018;4.726;2022-11-23T08:47:28;46459.88;;;-144.79;100.00
19827;BME280;10074;52.018;4.726;2022-11-23T08:52:28;46455.84;;;-144.79;100.00
19827;BME280;10074;52.018;4.726;2022-11-23T08:57:29;46459.88;;;-144.79;100.00
19827;BME280;10074;52.018;4.726;2022-11-23T09:02:30;46463.88;;;-144.79;100.00
19827;BME280;10074;52.018;4.726;2022-11-23T09:07:30;46463.88;;;-144.79;100.00
19827;BME280;10074;52.018;4.726;2022-11-23T09:12:32;46457.88;;;-144.79;100.00
19827;BME280;10074;52.018;4.726;2022-11-23T09:17:33;46459.88;;;-144.79;100.00
19827;BME280;10074;52.018;4.726;2022-11-23T09:22:33;46459.88;;;-144.79;100.00
19827;BME280;10074;52.018;4.726;2022-11-23T09:27:33;46457.88;;;-144.79;100.00
19827;BME280;10074;52.018;4.726;2022-11-23T09:32:34;46461.88;;;-144.79;100.00
19827;BME280;10074;52.018;4.726;2022-11-23T09:37:34;46455.84;;;-144.79;100.00
19827;BME280;10074;52.018;4.726;2022-11-23T09:48:24;46463.88;;;-144.79;100.00
19827;BME280;10074;52.018;4.726;2022-11-23T09:53:35;46459.88;;;-144.79;100.00
19827;BME280;10074;52.018;4.726;2022-11-23T09:58:41;46457.88;;;-144.79;100.00
19827;BME280;10074;52.018;4.726;2022-11-23T10:03:43;46459.88;;;-144.79;100.00
19827;BME280;10074;52.018;4.726;2022-11-23T10:25:17;46451.84;;;-144.79;100.00
19827;BME280;10074;52.018;4.726;2022-11-23T10:30:18;46451.84;;;-144.79;100.00
19827;BME280;10074;52.018;4.726;2022-11-23T10:35:33;46455.84;;;-144.79;100.00
19827;BME280;10074;52.018;4.726;2022-11-23T10:40:36;46449.84;;;-144.79;100.00
19827;BME280;10074;52.018;4.726;2022-11-23T10:45:38;46465.88;;;-144.79;100.00
19827;BME280;10074;52.018;4.726;2022-11-23T10:50:38;46459.88;;;-144.79;100.00
19827;BME280;10074;52.018;4.726;2022-11-23T10:55:52;46463.88;;;-144.79;100.00
19827;BME280;10074;52.018;4.726;2022-11-23T11:01:11;46463.88;;;-144.79;100.00
19827;BME280;10074;52.018;4.726;2022-11-23T11:06:20;46463.88;;;-144.79;100.00
19827;BME280;10074;52.018;4.726;2022-11-23T11:11:33;46457.88;;;-144.79;100.00
19827;BME280;10074;52.018;4.726;2022-11-23T11:16:36;46457.88;;;-144.79;100.00
19827;BME280;10074;52.018;4.726;2022-11-23T11:21:40;46455.84;;;-144.79;100.00
19827;BME280;10074;52.018;4.726;2022-11-23T11:26:57;46449.84;;;-144.79;100.00
19827;BME280;10074;52.018;4.726;2022-11-23T11:32:03;46449.84;;;-144.79;100.00
19827;BME280;10074;52.018;4.726;2022-11-23T11:37:28;46443.81;;;-144.79;100.00
19827;BME280;10074;52.018;4.726;2022-11-23T11:42:44;46447.84;;;-144.79;100.00
19827;BME280;10074;52.018;4.726;2022-11-23T11:48:00;46443.81;;;-144.79;100.00
19827;BME280;10074;52.018;4.726;2022-11-23T11:53:06;46435.81;;;-144.79;100.00
19827;BME280;10074;52.018;4.726;2022-11-23T11:58:14;46447.84;;;-144.79;100.00
19827;BME280;10074;52.018;4.726;2022-11-23T12:03:39;46435.81;;;-144.79;100.00
19827;BME280;10074;52.018;4.726;2022-11-23T12:09:15;46451.84;;;-144.79;100.00
19827;BME280;10074;52.018;4.726;2022-11-23T12:14:17;46443.81;;;-144.79;100.00
19827;BME280;10074;52.018;4.726;2022-11-23T12:19:19;46453.84;;;-144.79;100.00
19827;BME280;10074;52.018;4.726;2022-11-23T12:24:29;46459.88;;;-144.79;100.00
19827;BME280;10074;52.018;4.726;2022-11-23T12:46:02;46471.91;;;-144.79;100.00
19827;BME280;10074;52.018;4.726;2022-11-23T13:01:49;46473.91;;;-144.79;100.00
19827;BME280;10074;52.018;4.726;2022-11-23T13:12:48;46473.91;;;-144.79;100.00
19827;BME280;10074;52.018;4.726;2022-11-23T13:23:38;46473.91;;;-144.79;100.00
19827;BME280;10074;52.018;4.726;2022-11-23T13:28:38;46473.91;;;-144.79;100.00
19827;BME280;10074;52.018;4.726;2022-11-23T13:33:40;46471.91;;;-144.79;100.00
19827;BME280;10074;52.018;4.726;2022-11-23T13:38:42;46475.91;;;-144.79;100.00
19827;BME280;10074;52.018;4.726;2022-11-23T13:43:42;46471.91;;;-144.79;100.00
19827;BME280;10074;52.018;4.726;2022-11-23T13:48:44;46475.91;;;-144.79;100.00
19827;BME280;10074;52.018;4.726;2022-11-23T13:53:51;46467.88;;;-144.79;100.00
19827;BME280;10074;52.018;4.726;2022-11-23T14:04:20;46473.91;;;-144.79;100.00
19827;BME280;10074;52.018;4.726;2022-11-23T14:09:34;46473.91;;;-144.79;100.00
19827;BME280;10074;52.018;4.726;2022-11-23T14:20:16;46471.91;;;-144.79;100.00
19827;BME280;10074;52.018;4.726;2022-11-23T14:30:42;46473.91;;;-144.79;100.00
19827;BME280;10074;52.018;4.726;2022-11-23T14:35:56;46473.91;;;-144.79;100.00
19827;BME280;10074;52.018;4.726;2022-11-23T14:41:15;46477.91;;;-144.79;100.00
19827;BME280;10074;52.018;4.726;2022-11-23T14:46:20;46473.91;;;-144.79;100.00
19827;BME280;10074;52.018;4.726;2022-11-23T14:51:24;46469.88;;;-144.79;100.00
19827;BME280;10074;52.018;4.726;2022-11-23T14:56:33;46475.91;;;-144.79;100.00
19827;BME280;10074;52.018;4.726;2022-11-23T15:01:35;46475.91;;;-144.79;100.00
19827;BME280;10074;52.018;4.726;2022-11-23T15:06:40;46473.91;;;-144.79;100.00
19827;BME280;10074;52.018;4.726;2022-11-23T15:11:42;46475.91;;;-144.79;100.00
19827;BME280;10074;52.018;4.726;2022-11-23T15:16:42;46471.91;;;-144.79;100.00
19827;BME280;10074;52.018;4.726;2022-11-23T15:21:43;46471.91;;;-144.79;100.00
19827;BME280;10074;52.018;4.726;2022-11-23T15:26:44;46475.91;;;-144.79;100.00
19827;BME280;10074;52.018;4.726;2022-11-23T15:31:44;46469.88;;;-144.79;100.00
19827;BME280;10074;52.018;4.726;2022-11-23T15:36:45;46471.91;;;-144.79;100.00
19827;BME280;10074;52.018;4.726;2022-11-23T15:41:45;46473.91;;;-144.79;100.00
19827;BME280;10074;52.018;4.726;2022-11-23T15:46:47;46471.91;;;-144.79;100.00
19827;BME280;10074;52.018;4.726;2022-11-23T15:51:48;46475.91;;;-144.79;100.00
19827;BME280;10074;52.018;4.726;2022-11-23T15:56:52;46475.91;;;-144.79;100.00
19827;BME280;10074;52.018;4.726;2022-11-23T16:02:00;46481.91;;;-144.79;100.00
19827;BME280;10074;52.018;4.726;2022-11-23T16:07:22;46473.91;;;-144.79;100.00
19827;BME280;10074;52.018;4.726;2022-11-23T16:12:30;46467.88;;;-144.79;100.00
19827;BME280;10074;52.018;4.726;2022-11-23T16:17:32;46471.91;;;-144.79;100.00
19827;BME280;10074;52.018;4.726;2022-11-23T16:22:35;46473.91;;;-144.79;100.00
19827;BME280;10074;52.018;4.726;2022-11-23T16:27:36;46471.91;;;-144.79;100.00
19827;BME280;10074;52.018;4.726;2022-11-23T16:32:36;46471.91;;;-144.79;100.00
19827;BME280;10074;52.018;4.726;2022-11-23T16:37:37;46467.88;;;-144.79;100.00
19827;BME280;10074;52.018;4.726;2022-11-23T16:42:37;46465.88;;;-144.79;100.00
19827;BME280;10074;52.018;4.726;2022-11-23T16:47:53;46463.88;;;-144.79;100.00
19827;BME280;10074;52.018;4.726;2022-11-23T16:52:54;46459.88;;;-144.79;100.00
19827;BME280;10074;52.018;4.726;2022-11-23T16:57:55;46455.84;;;-144.79;100.00
19827;BME280;10074;52.018;4.726;2022-11-23T17:02:55;46459.88;;;-144.79;100.00
19827;BME280;10074;52.018;4.726;2022-11-23T17:07:56;46453.84;;;-144.79;100.00
19827;BME280;10074;52.018;4.726;2022-11-23T17:12:56;46449.84;;;-144.79;100.00
19827;BME280;10074;52.018;4.726;2022-11-23T17:17:57;46453.84;;;-144.79;100.00
19827;BME280;10074;52.018;4.726;2022-11-23T17:22:57;46453.84;;;-144.79;100.00
19827;BME280;10074;52.018;4.726;2022-11-23T17:28:00;46449.84;;;-144.79;100.00
19827;BME280;10074;52.018;4.726;2022-11-23T17:33:00;46451.84;;;-144.79;100.00
19827;BME280;10074;52.018;4.726;2022-11-23T17:38:01;46447.84;;;-144.79;100.00
19827;BME280;10074;52.018;4.726;2022-11-23T17:43:01;46443.81;;;-144.79;100.00
19827;BME280;10074;52.018;4.726;2022-11-23T17:48:02;46439.81;;;-144.79;100.00
19827;BME280;10074;52.018;4.726;2022-11-23T17:53:03;46427.78;;;-144.79;100.00
19827;BME280;10074;52.018;4.726;2022-11-23T17:58:04;46425.78;;;-144.79;100.00
19827;BME280;10074;52.018;4.726;2022-11-23T18:03:04;46419.75;;;-144.79;100.00
19827;BME280;10074;52.018;4.726;2022-11-23T18:08:05;46413.75;;;-144.79;100.00
19827;BME280;10074;52.018;4.726;2022-11-23T18:13:05;46413.75;;;-144.79;100.00
19827;BME280;10074;52.018;4.726;2022-11-23T18:18:05;46397.72;;;-144.79;100.00
19827;BME280;10074;52.018;4.726;2022-11-23T18:23:06;46399.72;;;-144.79;100.00
19827;BME280;10074;52.018;4.726;2022-11-23T18:28:06;46399.72;;;-144.79;100.00
19827;BME280;10074;52.018;4.726;2022-11-23T18:33:07;46391.69;;;-144.79;100.00
19827;BME280;10074;52.018;4.726;2022-11-23T18:38:07;46407.72;;;-144.79;100.00
19827;BME280;10074;52.018;4.726;2022-11-23T18:43:07;46403.72;;;-144.79;100.00
19827;BME280;10074;52.018;4.726;2022-11-23T18:48:08;46407.72;;;-144.79;100.00
19827;BME280;10074;52.018;4.726;2022-11-23T18:53:08;46407.72;;;-144.79;100.00
19827;BME280;10074;52.018;4.726;2022-11-23T18:58:08;46399.72;;;-144.79;100.00
19827;BME280;10074;52.018;4.726;2022-11-23T19:03:09;46395.69;;;-144.79;100.00
19827;BME280;10074;52.018;4.726;2022-11-23T19:08:10;46399.72;;;-144.79;100.00
19827;BME280;10074;52.018;4.726;2022-11-23T19:13:10;46385.69;;;-144.79;100.00
19827;BME280;10074;52.018;4.726;2022-11-23T19:18:11;46383.66;;;-144.79;100.00
19827;BME280;10074;52.018;4.726;2022-11-23T19:23:11;46393.69;;;-144.79;100.00
19827;BME280;10074;52.018;4.726;2022-11-23T19:28:11;46389.69;;;-144.79;100.00
19827;BME280;10074;52.018;4.726;2022-11-23T19:33:11;46381.66;;;-144.79;100.00
19827;BME280;10074;52.018;4.726;2022-11-23T19:38:12;46391.69;;;-144.79;100.00
19827;BME280;10074;52.018;4.726;2022-11-23T19:43:14;46387.69;;;-144.79;100.00
19827;BME280;10074;52.018;4.726;2022-11-23T19:48:14;46389.69;;;-144.79;100.00
19827;BME280;10074;52.018;4.726;2022-11-23T19:53:15;46383.66;;;-144.79;100.00
19827;BME280;10074;52.018;4.726;2022-11-23T19:58:15;46377.66;;;-144.79;100.00
19827;BME280;10074;52.018;4.726;2022-11-23T20:03:16;46383.66;;;-144.79;100.00
19827;BME280;10074;52.018;4.726;2022-11-23T20:08:16;46385.69;;;-144.79;100.00
19827;BME280;10074;52.018;4.726;2022-11-23T20:13:17;46399.72;;;-144.79;100.00
19827;BME280;10074;52.018;4.726;2022-11-23T20:18:17;46395.69;;;-144.79;100.00
19827;BME280;10074;52.018;4.726;2022-11-23T20:23:18;46407.72;;;-144.79;100.00
19827;BME280;10074;52.018;4.726;2022-11-23T20:28:18;46423.78;;;-144.79;100.00
19827;BME280;10074;52.018;4.726;2022-11-23T20:33:18;46431.78;;;-144.79;100.00
19827;BME280;10074;52.018;4.726;2022-11-23T20:38:19;46441.81;;;-144.79;100.00
19827;BME280;10074;52.018;4.726;2022-11-23T20:43:19;46449.84;;;-144.79;100.00
19827;BME280;10074;52.018;4.726;2022-11-23T20:48:20;46451.84;;;-144.79;100.00
19827;BME280;10074;52.018;4.726;2022-11-23T20:53:20;46451.84;;;-144.79;100.00
19827;BME280;10074;52.018;4.726;2022-11-23T20:58:21;46445.84;;;-144.79;100.00
19827;BME280;10074;52.018;4.726;2022-11-23T21:03:21;46455.84;;;-144.79;100.00
19827;BME280;10074;52.018;4.726;2022-11-23T21:08:21;46457.88;;;-144.79;100.00
19827;BME280;10074;52.018;4.726;2022-11-23T21:13:26;46455.84;;;-144.79;100.00
19827;BME280;10074;52.018;4.726;2022-11-23T21:18:45;46467.88;;;-144.79;100.00
19827;BME280;10074;52.018;4.726;2022-11-23T21:23:45;46463.88;;;-144.79;100.00
19827;BME280;10074;52.018;4.726;2022-11-23T21:28:46;46467.88;;;-144.79;100.00
19827;BME280;10074;52.018;4.726;2022-11-23T21:33:46;46469.88;;;-144.79;100.00
19827;BME280;10074;52.018;4.726;2022-11-23T21:38:47;46471.91;;;-144.79;100.00
19827;BME280;10074;52.018;4.726;2022-11-23T21:43:47;46467.88;;;-144.79;100.00
19827;BME280;10074;52.018;4.726;2022-11-23T21:48:53;46463.88;;;-144.79;100.00
19827;BME280;10074;52.018;4.726;2022-11-23T21:53:55;46471.91;;;-144.79;100.00
19827;BME280;10074;52.018;4.726;2022-11-23T21:58:56;46473.91;;;-144.79;100.00
19827;BME280;10074;52.018;4.726;2022-11-23T22:04:05;46471.91;;;-144.79;100.00
19827;BME280;10074;52.018;4.726;2022-11-23T22:09:08;46469.88;;;-144.79;100.00
19827;BME280;10074;52.018;4.726;2022-11-23T22:14:11;46467.88;;;-144.79;100.00
19827;BME280;10074;52.018;4.726;2022-11-23T22:19:13;46467.88;;;-144.79;100.00
19827;BME280;10074;52.018;4.726;2022-11-23T22:24:16;46471.91;;;-144.79;100.00
19827;BME280;10074;52.018;4.726;2022-11-23T22:29:17;46473.91;;;-144.79;100.00
19827;BME280;10074;52.018;4.726;2022-11-23T22:34:17;46471.91;;;-144.79;100.00
19827;BME280;10074;52.018;4.726;2022-11-23T22:39:18;46469.88;;;-144.79;100.00
19827;BME280;10074;52.018;4.726;2022-11-23T22:44:18;46475.91;;;-144.79;100.00
19827;BME280;10074;52.018;4.726;2022-11-23T22:49:19;46473.91;;;-144.79;100.00
19827;BME280;10074;52.018;4.726;2022-11-23T22:54:19;46469.88;;;-144.79;100.00
19827;BME280;10074;52.018;4.726;2022-11-23T22:59:19;46471.91;;;-144.79;100.00
19827;BME280;10074;52.018;4.726;2022-11-23T23:04:20;46475.91;;;-144.79;100.00
19827;BME280;10074;52.018;4.726;2022-11-23T23:09:20;46473.91;;;-144.79;100.00
19827;BME280;10074;52.018;4.726;2022-11-23T23:14:21;46471.91;;;-144.79;100.00
19827;BME280;10074;52.018;4.726;2022-11-23T23:19:21;46471.91;;;-144.79;100.00
19827;BME280;10074;52.018;4.726;2022-11-23T23:24:22;46467.88;;;-144.79;100.00
19827;BME280;10074;52.018;4.726;2022-11-23T23:29:23;46465.88;;;-144.79;100.00
19827;BME280;10074;52.018;4.726;2022-11-23T23:34:24;46469.88;;;-144.79;100.00
19827;BME280;10074;52.018;4.726;2022-11-23T23:39:25;46471.91;;;-144.79;100.00
19827;BME280;10074;52.018;4.726;2022-11-23T23:44:25;46475.91;;;-144.79;100.00
19827;BME280;10074;52.018;4.726;2022-11-23T23:49:26;46471.91;;;-144.79;100.00
19827;BME280;10074;52.018;4.726;2022-11-23T23:54:30;46473.91;;;-144.79;100.00
19827;BME280;10074;52.018;4.726;2022-11-23T23:59:31;46473.91;;;-144.79;100.00
